Observation data for Snyder on 05/24/2020      Previous  Date  Next       Current Mesonet Observations  Soil Data  Daily Summary Page  Observations in Plain Language
KSYS 240500Z 07015G20KT 19/12 A2986 RMK A01 T01880123  RH  069%=      5-min Rain = 0
KSYS 240505Z 07013G19KT 19/12 A2986 RMK A01 T01890123  RH  068%=      5-min Rain = 0
KSYS 240510Z 07014KT 19/12 A2985 RMK A01 T01900122  RH  067%=      5-min Rain = 0
KSYS 240515Z 06015G23KT 19/12 A2985 RMK A01 T01920120  RH  065%=      5-min Rain = 0
KSYS 240520Z 07013G19KT 19/12 A2986 RMK A01 T01940119  RH  064%=      5-min Rain = 0
KSYS 240525Z 08010G15KT 19/12 A2986 RMK A01 T01930118  RH  064%=      5-min Rain = 0
KSYS 240530Z 07013G18KT 19/12 A2985 RMK A01 T01940117  RH  063%=      5-min Rain = 0
KSYS 240535Z 08010KT 20/12 A2985 RMK A01 T01950116  RH  062%=      5-min Rain = 0
KSYS 240540Z 11008KT 19/12 A2985 RMK A01 T01940116  RH  063%=      5-min Rain = 0
KSYS 240545Z 11009KT 19/12 A2986 RMK A01 T01910116  RH  064%=      5-min Rain = 0
KSYS 240550Z 09009KT 19/12 A2985 RMK A01 T01910115  RH  064%=      5-min Rain = 0
KSYS 240555Z 08009KT 19/11 A2985 RMK A01 T01930114  RH  063%=      5-min Rain = 0
KSYS 240600Z 08012KT 19/12 A2985 RMK A01 T01900115  RH  064%=      5-min Rain = 0
KSYS 240605Z 07012KT 19/11 A2984 RMK A01 T01910114  RH  063%=      5-min Rain = 0
KSYS 240610Z 08011KT 20/11 A2984 RMK A01 T01960110  RH  060%=      5-min Rain = 0
KSYS 240615Z 10008KT 20/11 A2985 RMK A01 T01960112  RH  060%=      5-min Rain = 0
KSYS 240620Z 10008KT 19/11 A2985 RMK A01 T01920112  RH  062%=      5-min Rain = 0
KSYS 240625Z 11006KT 19/11 A2985 RMK A01 T01900112  RH  063%=      5-min Rain = 0
KSYS 240630Z 12005KT 19/11 A2984 RMK A01 T01890111  RH  062%=      5-min Rain = 0
KSYS 240635Z 13007KT 19/11 A2984 RMK A01 T01880111  RH  063%=      5-min Rain = 0
KSYS 240640Z 10007KT 19/11 A2984 RMK A01 T01880111  RH  063%=      5-min Rain = 0
KSYS 240645Z 10007KT 19/11 A2985 RMK A01 T01880112  RH  064%=      5-min Rain = 0
KSYS 240650Z 10007KT 19/11 A2985 RMK A01 T01860112  RH  064%=      5-min Rain = 0
KSYS 240655Z 09008KT 19/11 A2985 RMK A01 T01860112  RH  064%=      5-min Rain = 0
KSYS 240700Z 10009KT 19/11 A2985 RMK A01 T01870111  RH  063%=      5-min Rain = 0
KSYS 240705Z 09011KT 19/11 A2985 RMK A01 T01900110  RH  062%=      5-min Rain = 0
KSYS 240710Z 10010KT 19/11 A2985 RMK A01 T01920110  RH  061%=      5-min Rain = 0
KSYS 240715Z 10010KT 19/11 A2986 RMK A01 T01910110  RH  062%=      5-min Rain = 0
KSYS 240720Z 10011G18KT 19/11 A2985 RMK A01 T01910111  RH  062%=      5-min Rain = 0
KSYS 240725Z 10012KT 19/11 A2985 RMK A01 T01930113  RH  062%=      5-min Rain = 0
KSYS 240730Z 10013KT 19/12 A2985 RMK A01 T01920115  RH  063%=      5-min Rain = 0
KSYS 240735Z 10012KT 19/12 A2985 RMK A01 T01910116  RH  064%=      5-min Rain = 0
KSYS 240740Z 10011KT 19/12 A2985 RMK A01 T01900117  RH  065%=      5-min Rain = 0
KSYS 240745Z 10011KT 19/12 A2984 RMK A01 T01880118  RH  066%=      5-min Rain = 0
KSYS 240750Z 10011KT 19/12 A2984 RMK A01 T01880119  RH  067%=      5-min Rain = 0
KSYS 240755Z 11010KT 19/12 A2984 RMK A01 T01870120  RH  068%=      5-min Rain = 0
KSYS 240800Z 11010KT 19/12 A2984 RMK A01 T01860121  RH  068%=      5-min Rain = 0
KSYS 240805Z 11010KT 19/12 A2984 RMK A01 T01860121  RH  068%=      5-min Rain = 0
KSYS 240810Z 11011KT 19/12 A2984 RMK A01 T01860122  RH  069%=      5-min Rain = 0
KSYS 240815Z 11011KT 19/12 A2984 RMK A01 T01850124  RH  070%=      5-min Rain = 0
KSYS 240820Z 11010KT 18/13 A2984 RMK A01 T01830125  RH  072%=      5-min Rain = 0
KSYS 240825Z 12009KT 18/13 A2984 RMK A01 T01820126  RH  073%=      5-min Rain = 0
KSYS 240830Z 12009KT 18/13 A2984 RMK A01 T01810128  RH  074%=      5-min Rain = 0
KSYS 240835Z 12010KT 18/13 A2984 RMK A01 T01800129  RH  075%=      5-min Rain = 0
KSYS 240840Z 13009KT 18/13 A2984 RMK A01 T01800130  RH  075%=      5-min Rain = 0
KSYS 240845Z 12009KT 18/13 A2984 RMK A01 T01790129  RH  076%=      5-min Rain = 0
KSYS 240850Z 13008KT 18/13 A2984 RMK A01 T01790129  RH  076%=      5-min Rain = 0
KSYS 240855Z 14008KT 18/13 A2985 RMK A01 T01780129  RH  076%=      5-min Rain = 0
KSYS 240900Z 13007KT 18/13 A2985 RMK A01 T01770129  RH  077%=      5-min Rain = 0
KSYS 240905Z 15006KT 18/13 A2985 RMK A01 T01750129  RH  077%=      5-min Rain = 0
KSYS 240910Z 16005KT 17/13 A2985 RMK A01 T01730129  RH  078%=      5-min Rain = 0
KSYS 240915Z 16006KT 17/13 A2985 RMK A01 T01720129  RH  079%=      5-min Rain = 0
KSYS 240920Z 16007KT 17/13 A2985 RMK A01 T01700129  RH  079%=      5-min Rain = 0
KSYS 240925Z 16006KT 17/13 A2984 RMK A01 T01700129  RH  080%=      5-min Rain = 0
KSYS 240930Z 18006KT 17/13 A2984 RMK A01 T01690129  RH  080%=      5-min Rain = 0
KSYS 240935Z 17006KT 17/13 A2984 RMK A01 T01690130  RH  081%=      5-min Rain = 0
KSYS 240940Z 17006KT 17/13 A2984 RMK A01 T01690130  RH  081%=      5-min Rain = 0
KSYS 240945Z 16005KT 17/13 A2984 RMK A01 T01680129  RH  081%=      5-min Rain = 0
KSYS 240950Z 17004KT 17/13 A2984 RMK A01 T01660129  RH  082%=      5-min Rain = 0
KSYS 240955Z 19004KT 16/13 A2984 RMK A01 T01640128  RH  083%=      5-min Rain = 0
KSYS 241000Z 20003KT 16/13 A2984 RMK A01 T01630129  RH  083%=      5-min Rain = 0
KSYS 241005Z 19004KT 16/13 A2984 RMK A01 T01630129  RH  084%=      5-min Rain = 0
KSYS 241010Z 18004KT 16/13 A2984 RMK A01 T01620128  RH  084%=      5-min Rain = 0
KSYS 241015Z 17004KT 16/13 A2984 RMK A01 T01610129  RH  084%=      5-min Rain = 0
KSYS 241020Z 17003KT 16/13 A2984 RMK A01 T01610129  RH  084%=      5-min Rain = 0
KSYS 241025Z 18003KT 16/13 A2984 RMK A01 T01600128  RH  085%=      5-min Rain = 0
KSYS 241030Z 19003KT 16/13 A2984 RMK A01 T01590128  RH  085%=      5-min Rain = 0
KSYS 241035Z 19003KT 16/13 A2984 RMK A01 T01590129  RH  086%=      5-min Rain = 0
KSYS 241040Z 19003KT 16/13 A2984 RMK A01 T01600131  RH  086%=      5-min Rain = 0
KSYS 241045Z 19002KT 16/13 A2984 RMK A01 T01610131  RH  086%=      5-min Rain = 0
KSYS 241050Z 18002KT 16/13 A2984 RMK A01 T01630132  RH  085%=      5-min Rain = 0
KSYS 241055Z 17003KT 16/13 A2984 RMK A01 T01630131  RH  085%=      5-min Rain = 0
KSYS 241100Z 17003KT 16/13 A2984 RMK A01 T01630131  RH  084%=      5-min Rain = 0
KSYS 241105Z 17003KT 16/13 A2985 RMK A01 T01630131  RH  084%=      5-min Rain = 0
KSYS 241110Z 17003KT 16/13 A2985 RMK A01 T01620130  RH  084%=      5-min Rain = 0
KSYS 241115Z 17003KT 16/13 A2985 RMK A01 T01610130  RH  085%=      5-min Rain = 0
KSYS 241120Z 16004KT 16/13 A2985 RMK A01 T01600130  RH  086%=      5-min Rain = 0
KSYS 241125Z 15004KT 16/13 A2985 RMK A01 T01590130  RH  086%=      5-min Rain = 0
KSYS 241130Z 14005KT 16/13 A2985 RMK A01 T01570128  RH  086%=      5-min Rain = 0
KSYS 241135Z 13006KT 16/13 A2985 RMK A01 T01550127  RH  087%=      5-min Rain = 0
KSYS 241140Z 14005KT 15/13 A2985 RMK A01 T01540128  RH  088%=      5-min Rain = 0
KSYS 241145Z 14005KT 15/13 A2985 RMK A01 T01540128  RH  088%=      5-min Rain = 0
KSYS 241150Z 15005KT 15/13 A2985 RMK A01 T01530127  RH  088%=      5-min Rain = 0
KSYS 241155Z 15006KT 15/13 A2985 RMK A01 T01540128  RH  088%=      5-min Rain = 0
KSYS 241200Z 15006KT 16/13 A2986 RMK A01 T01550128  RH  087%=      5-min Rain = 0
KSYS 241205Z 15007KT 16/13 A2986 RMK A01 T01560128  RH  087%=      5-min Rain = 0
KSYS 241210Z 14008KT 16/13 A2986 RMK A01 T01570129  RH  087%=      5-min Rain = 0
KSYS 241215Z 15007KT 16/13 A2986 RMK A01 T01590129  RH  085%=      5-min Rain = 0
KSYS 241220Z 15007KT 16/13 A2986 RMK A01 T01610130  RH  085%=      5-min Rain = 0
KSYS 241225Z 15007KT 16/13 A2986 RMK A01 T01640131  RH  084%=      5-min Rain = 0
KSYS 241230Z 16007KT 17/13 A2986 RMK A01 T01670131  RH  083%=      5-min Rain = 0
KSYS 241235Z 17007KT 17/13 A2986 RMK A01 T01700132  RH  082%=      5-min Rain = 0
KSYS 241240Z 17007KT 17/13 A2986 RMK A01 T01730132  RH  080%=      5-min Rain = 0
KSYS 241245Z 17007KT 18/13 A2986 RMK A01 T01760133  RH  079%=      5-min Rain = 0
KSYS 241250Z 17007KT 18/13 A2986 RMK A01 T01790134  RH  078%=      5-min Rain = 0
KSYS 241255Z 17008KT 18/13 A2986 RMK A01 T01820134  RH  077%=      5-min Rain = 0
KSYS 241300Z 17008KT 19/14 A2986 RMK A01 T01850135  RH  076%=      5-min Rain = 0
KSYS 241305Z 17008KT 19/14 A2986 RMK A01 T01880136  RH  075%=      5-min Rain = 0
KSYS 241310Z 18009KT 19/14 A2986 RMK A01 T01920135  RH  072%=      5-min Rain = 0
KSYS 241315Z 18008KT 20/14 A2986 RMK A01 T01960135  RH  071%=      5-min Rain = 0
KSYS 241320Z 17009KT 20/14 A2986 RMK A01 T01990136  RH  070%=      5-min Rain = 0
KSYS 241325Z 17010KT 20/14 A2986 RMK A01 T02010135  RH  069%=      5-min Rain = 0
KSYS 241330Z 17009KT 20/14 A2986 RMK A01 T02040136  RH  068%=      5-min Rain = 0
KSYS 241335Z 17010G17KT 21/14 A2986 RMK A01 T02080138  RH  067%=      5-min Rain = 0
KSYS 241340Z 18011KT 21/14 A2986 RMK A01 T02120138  RH  065%=      5-min Rain = 0
KSYS 241345Z 18013G18KT 22/14 A2985 RMK A01 T02150138  RH  064%=      5-min Rain = 0
KSYS 241350Z 18013G20KT 22/14 A2985 RMK A01 T02180138  RH  063%=      5-min Rain = 0
KSYS 241355Z 17014G19KT 22/14 A2985 RMK A01 T02180137  RH  062%=      5-min Rain = 0
KSYS 241400Z 18014G21KT 22/14 A2985 RMK A01 T02190137  RH  062%=      5-min Rain = 0
KSYS 241405Z 17016G21KT 22/14 A2984 RMK A01 T02220139  RH  062%=      5-min Rain = 0
KSYS 241410Z 17016G22KT 22/14 A2984 RMK A01 T02220139  RH  062%=      5-min Rain = 0
KSYS 241415Z 17015G22KT 23/14 A2985 RMK A01 T02250141  RH  061%=      5-min Rain = 0
KSYS 241420Z 17018G26KT 23/14 A2984 RMK A01 T02250140  RH  061%=      5-min Rain = 0
KSYS 241425Z 17016KT 23/14 A2985 RMK A01 T02280142  RH  061%=      5-min Rain = 0
KSYS 241430Z 18016G22KT 23/14 A2985 RMK A01 T02310143  RH  060%=      5-min Rain = 0
KSYS 241435Z 18014G19KT 24/15 A2985 RMK A01 T02350146  RH  060%=      5-min Rain = 0
KSYS 241440Z 17016G26KT 24/15 A2984 RMK A01 T02370147  RH  060%=      5-min Rain = 0
KSYS 241445Z 16019G25KT 24/15 A2984 RMK A01 T02390147  RH  059%=      5-min Rain = 0
KSYS 241450Z 17019G24KT 24/15 A2985 RMK A01 T02410148  RH  059%=      5-min Rain = 0
KSYS 241455Z 17016G22KT 24/15 A2985 RMK A01 T02430151  RH  059%=      5-min Rain = 0
KSYS 241500Z 18017G22KT 25/15 A2984 RMK A01 T02480153  RH  058%=      5-min Rain = 0
KSYS 241505Z 17019G25KT 25/15 A2984 RMK A01 T02470152  RH  058%=      5-min Rain = 0
KSYS 241510Z 17018G27KT 25/15 A2984 RMK A01 T02480152  RH  058%=      5-min Rain = 0
KSYS 241515Z 17020G27KT 25/15 A2984 RMK A01 T02510154  RH  057%=      5-min Rain = 0
KSYS 241520Z 17017G24KT 25/16 A2984 RMK A01 T02540157  RH  058%=      5-min Rain = 0
KSYS 241525Z 17019G28KT 26/16 A2984 RMK A01 T02560157  RH  057%=      5-min Rain = 0
KSYS 241530Z 17022G29KT 25/16 A2984 RMK A01 T02540157  RH  058%=      5-min Rain = 0
KSYS 241535Z 18021G28KT 25/16 A2984 RMK A01 T02540158  RH  058%=      5-min Rain = 0
KSYS 241540Z 17020G26KT 26/16 A2984 RMK A01 T02550159  RH  058%=      5-min Rain = 0
KSYS 241545Z 18016G28KT 26/16 A2984 RMK A01 T02620162  RH  057%=      5-min Rain = 0
KSYS 241550Z 18020G27KT 26/16 A2983 RMK A01 T02620159  RH  056%=      5-min Rain = 0
KSYS 241555Z 18018G26KT 26/16 A2984 RMK A01 T02620159  RH  056%=      5-min Rain = 0
KSYS 241600Z 18016G24KT 27/16 A2984 RMK A01 T02660162  RH  055%=      5-min Rain = 0
KSYS 241605Z 18017G23KT 27/16 A2984 RMK A01 T02680162  RH  055%=      5-min Rain = 0
KSYS 241610Z 18017G23KT 27/16 A2984 RMK A01 T02680162  RH  055%=      5-min Rain = 0
KSYS 241615Z 18019G26KT 27/16 A2984 RMK A01 T02670162  RH  055%=      5-min Rain = 0
KSYS 241620Z 19018G25KT 26/16 A2984 RMK A01 T02640162  RH  056%=      5-min Rain = 0
KSYS 241625Z 18019G25KT 26/16 A2984 RMK A01 T02640164  RH  057%=      5-min Rain = 0
KSYS 241630Z 18015G24KT 27/17 A2984 RMK A01 T02690166  RH  056%=      5-min Rain = 0
KSYS 241635Z 17016G23KT 28/17 A2984 RMK A01 T02760169  RH  055%=      5-min Rain = 0
KSYS 241640Z 18015G23KT 28/17 A2984 RMK A01 T02770170  RH  055%=      5-min Rain = 0
KSYS 241645Z 18016G24KT 28/17 A2984 RMK A01 T02750170  RH  055%=      5-min Rain = 0
KSYS 241650Z 17016G23KT 28/17 A2984 RMK A01 T02780171  RH  055%=      5-min Rain = 0
KSYS 241655Z 18016G23KT 28/17 A2984 RMK A01 T02800172  RH  054%=      5-min Rain = 0
KSYS 241700Z 18017G29KT 28/17 A2984 RMK A01 T02810172  RH  054%=      5-min Rain = 0
KSYS 241705Z 18017G22KT 28/17 A2984 RMK A01 T02820172  RH  054%=      5-min Rain = 0
KSYS 241710Z 18014G20KT 28/17 A2984 RMK A01 T02800171  RH  054%=      5-min Rain = 0
KSYS 241715Z 16015G23KT 29/17 A2984 RMK A01 T02900174  RH  052%=      5-min Rain = 0
KSYS 241720Z 18018G25KT 29/17 A2984 RMK A01 T02870172  RH  052%=      5-min Rain = 0
KSYS 241725Z 18016G24KT 29/17 A2984 RMK A01 T02880171  RH  052%=      5-min Rain = 0
KSYS 241730Z 18018G23KT 29/17 A2984 RMK A01 T02860169  RH  052%=      5-min Rain = 0
KSYS 241735Z 17016G24KT 28/17 A2983 RMK A01 T02820170  RH  053%=      5-min Rain = 0
KSYS 241740Z 17017G26KT 29/17 A2983 RMK A01 T02880172  RH  052%=      5-min Rain = 0
KSYS 241745Z 17018G25KT 29/17 A2983 RMK A01 T02900171  RH  051%=      5-min Rain = 0
KSYS 241750Z 17017G25KT 29/17 A2982 RMK A01 T02900172  RH  051%=      5-min Rain = 0
KSYS 241755Z 17019G27KT 29/17 A2982 RMK A01 T02910172  RH  051%=      5-min Rain = 0
KSYS 241800Z 18017G26KT 29/17 A2982 RMK A01 T02930171  RH  050%=      5-min Rain = 0
KSYS 241805Z 16018G23KT 29/17 A2981 RMK A01 T02920172  RH  051%=      5-min Rain = 0
KSYS 241810Z 17018G26KT 29/17 A2981 RMK A01 T02940171  RH  050%=      5-min Rain = 0
KSYS 241815Z 16018G24KT 30/17 A2981 RMK A01 T02960171  RH  050%=      5-min Rain = 0
KSYS 241820Z 16019G28KT 30/17 A2981 RMK A01 T02950168  RH  049%=      5-min Rain = 0
KSYS 241825Z 17018G26KT 30/17 A298 RMK A01 T02960169  RH  049%=      5-min Rain = 0
KSYS 241830Z 17019G27KT 30/17 A298 RMK A01 T02960167  RH  048%=      5-min Rain = 0
KSYS 241835Z 18018G26KT 30/17 A298 RMK A01 T02960167  RH  048%=      5-min Rain = 0
KSYS 241840Z 17018G25KT 30/17 A298 RMK A01 T03010168  RH  047%=      5-min Rain = 0
KSYS 241845Z 17017G24KT 30/17 A2979 RMK A01 T03040168  RH  046%=      5-min Rain = 0
KSYS 241850Z 17017G24KT 30/17 A2979 RMK A01 T03040168  RH  046%=      5-min Rain = 0
KSYS 241855Z 18017G25KT 30/17 A2979 RMK A01 T03010166  RH  047%=      5-min Rain = 0
KSYS 241900Z 17016G27KT 30/17 A2979 RMK A01 T03020167  RH  046%=      5-min Rain = 0
KSYS 241905Z 19018G25KT 30/17 A2979 RMK A01 T03030165  RH  046%=      5-min Rain = 0
KSYS 241910Z 18015G22KT 31/17 A2978 RMK A01 T03070167  RH  045%=      5-min Rain = 0
KSYS 241915Z 18017G24KT 31/17 A2978 RMK A01 T03100166  RH  044%=      5-min Rain = 0
KSYS 241920Z 17017G26KT 31/17 A2978 RMK A01 T03100166  RH  044%=      5-min Rain = 0
KSYS 241925Z 18018G24KT 31/17 A2978 RMK A01 T03110166  RH  044%=      5-min Rain = 0
KSYS 241930Z 18013G22KT 32/17 A2977 RMK A01 T03150167  RH  043%=      5-min Rain = 0
KSYS 241935Z 17015G25KT 32/17 A2977 RMK A01 T03170170  RH  044%=      5-min Rain = 0
KSYS 241940Z 18016G22KT 32/17 A2977 RMK A01 T03170169  RH  043%=      5-min Rain = 0
KSYS 241945Z 17014G20KT 32/17 A2976 RMK A01 T03180170  RH  043%=      5-min Rain = 0
KSYS 241950Z 17016G21KT 32/17 A2976 RMK A01 T03200168  RH  042%=      5-min Rain = 0
KSYS 241955Z 18015G23KT 32/17 A2976 RMK A01 T03190167  RH  042%=      5-min Rain = 0
KSYS 242000Z 19013G19KT 32/17 A2976 RMK A01 T03220167  RH  041%=      5-min Rain = 0
KSYS 242005Z 19014G20KT 32/17 A2976 RMK A01 T03240168  RH  041%=      5-min Rain = 0
KSYS 242010Z 16013G22KT 33/17 A2976 RMK A01 T03250170  RH  041%=      5-min Rain = 0
KSYS 242015Z 17015G23KT 32/17 A2975 RMK A01 T03220167  RH  041%=      5-min Rain = 0
KSYS 242020Z 18015G22KT 33/17 A2975 RMK A01 T03250168  RH  041%=      5-min Rain = 0
KSYS 242025Z 17015G22KT 32/17 A2975 RMK A01 T03240166  RH  041%=      5-min Rain = 0
KSYS 242030Z 17016G21KT 32/17 A2974 RMK A01 T03240167  RH  041%=      5-min Rain = 0
KSYS 242035Z 18012G19KT 32/17 A2974 RMK A01 T03240166  RH  041%=      5-min Rain = 0
KSYS 242040Z 16015KT 33/17 A2973 RMK A01 T03280165  RH  040%=      5-min Rain = 0
KSYS 242045Z 15014G19KT 33/17 A2973 RMK A01 T03280168  RH  040%=      5-min Rain = 0
KSYS 242050Z 18015G20KT 32/17 A2973 RMK A01 T03190165  RH  042%=      5-min Rain = 0
KSYS 242055Z 17014G21KT 32/17 A2972 RMK A01 T03170165  RH  042%=      5-min Rain = 0
KSYS 242100Z 18014G31KT 32/17 A2972 RMK A01 T03200166  RH  042%=      5-min Rain = 0
KSYS 242105Z 16011G16KT 33/17 A2971 RMK A01 T03320167  RH  039%=      5-min Rain = 0
KSYS 242110Z 16012G19KT 33/17 A2971 RMK A01 T03300167  RH  040%=      5-min Rain = 0
KSYS 242115Z 16013G21KT 33/17 A2971 RMK A01 T03310166  RH  039%=      5-min Rain = 0
KSYS 242120Z 16010KT 33/17 A2971 RMK A01 T03290165  RH  039%=      5-min Rain = 0
KSYS 242125Z 15013G18KT 33/17 A297 RMK A01 T03280166  RH  040%=      5-min Rain = 0
KSYS 242130Z 16013G18KT 32/16 A297 RMK A01 T03230161  RH  040%=      5-min Rain = 0
KSYS 242135Z 17010KT 32/16 A2969 RMK A01 T03230162  RH  040%=      5-min Rain = 0
KSYS 242140Z 15012G19KT 33/16 A2969 RMK A01 T03280164  RH  039%=      5-min Rain = 0
KSYS 242145Z 16013G19KT 33/16 A2968 RMK A01 T03280162  RH  039%=      5-min Rain = 0
KSYS 242150Z 16010G15KT 33/16 A2968 RMK A01 T03270163  RH  039%=      5-min Rain = 0
KSYS 242155Z 17011G16KT 33/16 A2968 RMK A01 T03310163  RH  038%=      5-min Rain = 0
KSYS 242200Z 16011G20KT 33/16 A2968 RMK A01 T03330163  RH  038%=      5-min Rain = 0
KSYS 242205Z 15013KT 33/16 A2968 RMK A01 T03270160  RH  038%=      5-min Rain = 0
KSYS 242210Z 17012G17KT 33/16 A2968 RMK A01 T03320159  RH  037%=      5-min Rain = 0
KSYS 242215Z 16011KT 33/16 A2967 RMK A01 T03280158  RH  038%=      5-min Rain = 0
KSYS 242220Z 15013G21KT 33/16 A2967 RMK A01 T03310160  RH  038%=      5-min Rain = 0
KSYS 242225Z 16016G21KT 33/16 A2966 RMK A01 T03290158  RH  038%=      5-min Rain = 0
KSYS 242230Z 16012G18KT 32/16 A2967 RMK A01 T03190158  RH  040%=      5-min Rain = 0
KSYS 242235Z 14015G20KT 32/16 A2966 RMK A01 T03150159  RH  041%=      5-min Rain = 0
KSYS 242240Z 15015G20KT 31/16 A2966 RMK A01 T03120157  RH  041%=      5-min Rain = 0
KSYS 242245Z 14014KT 31/16 A2966 RMK A01 T03100158  RH  042%=      5-min Rain = 0
KSYS 242250Z 15016G22KT 31/16 A2966 RMK A01 T03080157  RH  042%=      5-min Rain = 0
KSYS 242255Z 15016G22KT 31/16 A2966 RMK A01 T03060156  RH  042%=      5-min Rain = 0
KSYS 242300Z 15016G22KT 30/15 A2966 RMK A01 T03040153  RH  042%=      5-min Rain = 0
KSYS 242305Z 16016KT 30/15 A2966 RMK A01 T03030152  RH  042%=      5-min Rain = 0
KSYS 242310Z 16016G23KT 30/15 A2965 RMK A01 T03030150  RH  041%=      5-min Rain = 0
KSYS 242315Z 16014KT 30/15 A2965 RMK A01 T03030148  RH  041%=      5-min Rain = 0
KSYS 242320Z 15013KT 30/15 A2964 RMK A01 T03020151  RH  042%=      5-min Rain = 0
KSYS 242325Z 14016G21KT 30/15 A2964 RMK A01 T03010153  RH  043%=      5-min Rain = 0
KSYS 242330Z 14016KT 30/15 A2964 RMK A01 T03010153  RH  043%=      5-min Rain = 0
KSYS 242335Z 14017G22KT 30/16 A2963 RMK A01 T03000156  RH  044%=      5-min Rain = 0
KSYS 242340Z 12014KT 29/17 A2962 RMK A01 T02930166  RH  049%=      5-min Rain = 0
KSYS 242345Z 14015G24KT 29/16 A2962 RMK A01 T02880162  RH  049%=      5-min Rain = 0
KSYS 242350Z 16019G25KT 30/16 A2963 RMK A01 T02950155  RH  045%=      5-min Rain = 0
KSYS 242355Z 16018G24KT 30/16 A2964 RMK A01 T02960156  RH  045%=      5-min Rain = 0
KSYS 250000Z 16018G23KT 30/16 A2963 RMK A01 T02950155  RH  045%=      5-min Rain = 0
KSYS 250005Z 16017G24KT 29/15 A2963 RMK A01 T02930153  RH  044%=      5-min Rain = 0
KSYS 250010Z 16019G24KT 29/15 A2963 RMK A01 T02920150  RH  044%=      5-min Rain = 0
KSYS 250015Z 16018G25KT 29/15 A2963 RMK A01 T02920151  RH  044%=      5-min Rain = 0
KSYS 250020Z 16017G22KT 29/15 A2962 RMK A01 T02900151  RH  045%=      5-min Rain = 0
KSYS 250025Z 16021G27KT 29/15 A2962 RMK A01 T02900152  RH  045%=      5-min Rain = 0
KSYS 250030Z 16021G29KT 29/15 A2963 RMK A01 T02900153  RH  045%=      5-min Rain = 0
KSYS 250035Z 16020G28KT 29/16 A2964 RMK A01 T02890155  RH  046%=      5-min Rain = 0
KSYS 250040Z 16017G25KT 29/16 A2964 RMK A01 T02880155  RH  047%=      5-min Rain = 0
KSYS 250045Z 17030G43KT 27/14 A2964 RMK A01 T02700136  RH  045%=      5-min Rain = 0
KSYS 250050Z 18027G39KT 25/11 A2964 RMK A01 T02510110  RH  043%=      5-min Rain = 0
KSYS 250055Z 19027G38KT 25/09 A2964 RMK A01 T02490093  RH  038%=      5-min Rain = 0
KSYS 250100Z 20025G39KT 24/09 A2966 RMK A01 T02440088  RH  038%=      5-min Rain = 0
KSYS 250105Z 21018G25KT 24/10 A2968 RMK A01 T02370097  RH  042%=      5-min Rain = 0
KSYS 250110Z 20014G21KT 23/10 A297 RMK A01 T02290102  RH  046%=      5-min Rain = 0
KSYS 250115Z 23014G21KT 23/10 A2971 RMK A01 T02270102  RH  047%=      5-min Rain = 0
KSYS 250120Z 23013G21KT 23/10 A2972 RMK A01 T02250101  RH  047%=      5-min Rain = 0
KSYS 250125Z 23014G19KT 23/10 A2971 RMK A01 T02280095  RH  044%=      5-min Rain = 0
KSYS 250130Z 23015G21KT 23/09 A2971 RMK A01 T02290093  RH  043%=      5-min Rain = 0
KSYS 250135Z 24013KT 23/10 A2972 RMK A01 T02300095  RH  044%=      5-min Rain = 0
KSYS 250140Z 25009G15KT 23/11 A2974 RMK A01 T02260105  RH  048%=      5-min Rain = 0
KSYS 250145Z 26011G17KT 21/12 A2975 RMK A01 T02110119  RH  058%=      5-min Rain = 0
KSYS 250150Z 26009G16KT 21/12 A2975 RMK A01 T02070116  RH  058%=      5-min Rain = 0
KSYS 250155Z 25008G15KT 21/11 A2976 RMK A01 T02140109  RH  053%=      5-min Rain = 0
KSYS 250200Z 30009G15KT 22/12 A2976 RMK A01 T02160115  RH  054%=      5-min Rain = 0
KSYS 250205Z 33015G20KT 21/13 A2976 RMK A01 T02090125  RH  061%=      5-min Rain = 0
KSYS 250210Z 35019G29KT 20/13 A2975 RMK A01 T02000133  RH  068%=      5-min Rain = 0
KSYS 250215Z 35020G27KT 18/14 A2974 RMK A01 T01800142  RH  082%=      5-min Rain = 0
KSYS 250220Z 35021G26KT 17/14 A2972 RMK A01 T01740140  RH  084%=      5-min Rain = 0
KSYS 250225Z 36019G24KT 17/14 A2972 RMK A01 T01720137  RH  083%=      5-min Rain = 0
KSYS 250230Z 01013G20KT 17/14 A2972 RMK A01 T01720137  RH  084%=      5-min Rain = 0
KSYS 250235Z 03010KT 17/14 A2971 RMK A01 T01710137  RH  084%=      5-min Rain = 0
KSYS 250240Z 04009G14KT 17/14 A297 RMK A01 T01730137  RH  083%=      5-min Rain = 0
KSYS 250245Z 06009KT 18/14 A297 RMK A01 T01750137  RH  082%=      5-min Rain = 0
KSYS 250250Z 06008KT 18/14 A2969 RMK A01 T01780136  RH  080%=      5-min Rain = 0
KSYS 250255Z 04009KT 18/13 A2969 RMK A01 T01830134  RH  077%=      5-min Rain = 0
KSYS 250300Z 03013G18KT 18/14 A2968 RMK A01 T01840136  RH  077%=      5-min Rain = 0
KSYS 250305Z 03017G23KT 18/14 A2968 RMK A01 T01830138  RH  078%=      5-min Rain = 0
KSYS 250310Z 03018G23KT 18/14 A2968 RMK A01 T01810135  RH  077%=      5-min Rain = 0
KSYS 250315Z 05019G34KT 18/13 A297 RMK A01 T01840132  RH  075%=      5-min Rain = 0
KSYS 250320Z 05020G31KT 18/14 A2971 RMK A01 T01770137  RH  081%=      5-min Rain = 0
KSYS 250325Z 05018G29KT 18/13 A2971 RMK A01 T01800132  RH  076%=      5-min Rain = 0
KSYS 250330Z 06020G30KT 18/13 A2972 RMK A01 T01790134  RH  078%=      5-min Rain = 0
KSYS 250335Z 07022G33KT 18/13 A2973 RMK A01 T01750134  RH  080%=      5-min Rain = 0
KSYS 250340Z 08021G31KT 17/13 A2972 RMK A01 T01740133  RH  080%=      5-min Rain = 0
KSYS 250345Z 07020G29KT 18/13 A2973 RMK A01 T01750132  RH  079%=      5-min Rain = 0
KSYS 250350Z 08019G30KT 18/13 A2973 RMK A01 T01760131  RH  078%=      5-min Rain = 0
KSYS 250355Z 07019G25KT 18/13 A2974 RMK A01 T01770130  RH  077%=      5-min Rain = 0
KSYS 250400Z 08018G26KT 18/13 A2974 RMK A01 T01780130  RH  076%=      5-min Rain = 0
KSYS 250405Z 08017G24KT 18/13 A2975 RMK A01 T01780133  RH  078%=      5-min Rain = 0
KSYS 250410Z 08018G25KT 18/13 A2976 RMK A01 T01770134  RH  079%=      5-min Rain = 0
KSYS 250415Z 08018G24KT 18/13 A2976 RMK A01 T01780134  RH  078%=      5-min Rain = 0
KSYS 250420Z 07016G22KT 18/13 A2977 RMK A01 T01790133  RH  077%=      5-min Rain = 0
KSYS 250425Z 08014G19KT 18/13 A2978 RMK A01 T01800133  RH  077%=      5-min Rain = 0
KSYS 250430Z 08015G21KT 18/14 A2978 RMK A01 T01790135  RH  079%=      5-min Rain = 0
KSYS 250435Z 08015G20KT 18/14 A2978 RMK A01 T01780136  RH  079%=      5-min Rain = 0
KSYS 250440Z 08016G23KT 18/14 A2977 RMK A01 T01780135  RH  079%=      5-min Rain = 0
KSYS 250445Z 08014G19KT 18/13 A2978 RMK A01 T01790134  RH  078%=      5-min Rain = 0
KSYS 250450Z 09014G19KT 18/13 A2978 RMK A01 T01790133  RH  078%=      5-min Rain = 0
KSYS 250455Z 09015G21KT 18/13 A2978 RMK A01 T01780133  RH  078%=      5-min Rain = 0

Page generated in 0.048 seconds.